createdAt,value
2023-01-04T00:01:13.157Z,101631.91
2023-01-04T00:03:40.196Z,101631.69
2023-01-04T00:06:10.022Z,101643.38
2023-01-04T00:08:36.956Z,101650.44
2023-01-04T00:11:06.726Z,101644.84
2023-01-04T00:13:34.684Z,101651.19
2023-01-04T00:16:08.106Z,101653.19
2023-01-04T00:18:37.015Z,101657.81
2023-01-04T00:21:25.282Z,101655.69
2023-01-04T00:23:55.124Z,101649.97
2023-01-04T00:26:28.229Z,101654.03
2023-01-04T00:28:59.338Z,101659.38
2023-01-04T00:31:27.114Z,101667.22
2023-01-04T00:33:57.025Z,101662.59
2023-01-04T00:36:24.887Z,101661.16
2023-01-04T00:39:07.996Z,101667.69
2023-01-04T00:44:28.926Z,101664.00
2023-01-04T00:46:55.885Z,101668.34
2023-01-04T00:49:22.950Z,101667.59
2023-01-04T00:51:49.864Z,101667.69
2023-01-04T00:54:17.305Z,101671.19
2023-01-04T00:56:44.950Z,101667.91
2023-01-04T00:59:16.780Z,101674.06
2023-01-04T01:01:44.586Z,101674.19
2023-01-04T01:04:17.374Z,101677.00
2023-01-04T01:06:44.442Z,101673.66
2023-01-04T01:09:11.937Z,101672.09
2023-01-04T01:11:40.273Z,101662.28
2023-01-04T01:14:09.074Z,101664.72
2023-01-04T01:16:54.525Z,101665.56
2023-01-04T01:19:23.099Z,101666.84
2023-01-04T01:21:50.066Z,101673.06
2023-01-04T01:24:19.359Z,101680.72
2023-01-04T01:26:46.699Z,101669.44
2023-01-04T01:29:14.052Z,101680.09
2023-01-04T01:31:41.492Z,101677.00
2023-01-04T01:34:08.593Z,101673.81
2023-01-04T01:36:35.543Z,101671.38
2023-01-04T01:39:02.504Z,101677.06
2023-01-04T01:41:32.858Z,101671.91
2023-01-04T01:44:38.373Z,101672.63
2023-01-04T01:47:06.157Z,101676.25
2023-01-04T01:49:37.596Z,101667.69
2023-01-04T01:52:10.828Z,101668.44
2023-01-04T01:54:44.263Z,101666.66
2023-01-04T01:57:17.150Z,101671.00
2023-01-04T01:59:47.820Z,101669.56
2023-01-04T02:02:14.998Z,101662.44
2023-01-04T02:04:47.000Z,101664.75
2023-01-04T02:07:17.466Z,101671.97
2023-01-04T02:09:45.295Z,101677.81
2023-01-04T02:12:14.079Z,101674.53
2023-01-04T02:14:45.667Z,101676.16
2023-01-04T02:17:36.838Z,101674.00
2023-01-04T02:20:31.378Z,101680.06
2023-01-04T02:23:27.983Z,101672.53
2023-01-04T02:26:21.156Z,101674.44
2023-01-04T02:29:12.688Z,101680.44
2023-01-04T02:31:50.119Z,101669.97
2023-01-04T02:34:30.563Z,101670.72
2023-01-04T02:37:12.068Z,101669.38
2023-01-04T02:40:09.386Z,101670.91
2023-01-04T02:43:03.955Z,101677.81
2023-01-04T02:45:42.900Z,101668.13
2023-01-04T02:48:28.439Z,101666.38
2023-01-04T02:51:00.425Z,101664.53
2023-01-04T02:53:40.300Z,101663.94
2023-01-04T02:56:35.867Z,101658.16
2023-01-04T02:59:33.622Z,101668.28
2023-01-04T03:02:47.037Z,101671.56
2023-01-04T03:05:57.397Z,101667.91
2023-01-04T03:09:01.483Z,101679.88
2023-01-04T03:11:55.991Z,101679.25
2023-01-04T03:14:33.817Z,101674.06
2023-01-04T03:17:05.789Z,101677.41
2023-01-04T03:19:54.244Z,101672.72
2023-01-04T03:22:56.479Z,101668.59
2023-01-04T03:25:53.615Z,101673.31
2023-01-04T03:28:42.725Z,101675.16
2023-01-04T03:31:46.239Z,101685.44
2023-01-04T03:34:31.525Z,101681.13
2023-01-04T03:37:07.655Z,101706.53
2023-01-04T03:40:06.457Z,101700.44
2023-01-04T03:43:34.765Z,101699.59
2023-01-04T03:46:26.963Z,101708.34
2023-01-04T03:49:17.890Z,101708.16
2023-01-04T03:51:46.591Z,101698.13
2023-01-04T03:54:23.788Z,101695.97
2023-01-04T03:56:52.419Z,101701.41
2023-01-04T03:59:19.304Z,101706.91
2023-01-04T04:01:46.326Z,101707.31
2023-01-04T04:04:31.949Z,101702.88
2023-01-04T04:07:17.455Z,101708.94
2023-01-04T04:09:44.322Z,101710.56
2023-01-04T04:12:11.198Z,101718.69
2023-01-04T04:14:38.163Z,101718.66
2023-01-04T04:17:05.126Z,101711.09
2023-01-04T04:19:32.119Z,101718.09
2023-01-04T04:21:59.052Z,101728.69
2023-01-04T04:24:27.086Z,101734.31
2023-01-04T04:26:55.648Z,101729.06
2023-01-04T04:29:23.931Z,101731.53
2023-01-04T04:31:52.255Z,101736.50
2023-01-04T04:34:19.309Z,101732.81
2023-01-04T04:36:46.224Z,101742.59
2023-01-04T04:39:13.436Z,101741.88
2023-01-04T04:41:41.907Z,101739.06
2023-01-04T04:44:13.563Z,101745.75
2023-01-04T04:46:41.236Z,101743.81
2023-01-04T04:49:09.413Z,101756.53
2023-01-04T04:51:37.148Z,101754.84
2023-01-04T04:54:05.191Z,101755.13
2023-01-04T04:56:32.101Z,101765.56
2023-01-04T04:58:59.175Z,101758.03
2023-01-04T05:01:26.213Z,101760.28
2023-01-04T05:03:53.140Z,101754.63
2023-01-04T05:06:20.393Z,101762.84
2023-01-04T05:08:47.348Z,101755.59
2023-01-04T05:11:15.229Z,101756.78
2023-01-04T05:13:42.830Z,101753.22
2023-01-04T05:16:10.387Z,101750.63
2023-01-04T05:18:37.527Z,101754.50
2023-01-04T05:21:04.516Z,101759.38
2023-01-04T05:23:31.534Z,101763.63
2023-01-04T05:26:02.277Z,101753.69
2023-01-04T05:28:29.279Z,101757.66
2023-01-04T05:30:57.347Z,101759.69
2023-01-04T05:33:26.809Z,101756.09
2023-01-04T05:35:55.214Z,101760.16
2023-01-04T05:38:22.888Z,101753.28
2023-01-04T05:40:50.474Z,101746.63
2023-01-04T05:43:18.840Z,101748.34
2023-01-04T05:45:54.476Z,101758.72
2023-01-04T05:48:23.950Z,101760.91
2023-01-04T05:50:51.066Z,101768.03
2023-01-04T05:53:19.045Z,101776.09
2023-01-04T05:55:48.510Z,101782.38
2023-01-04T05:58:15.572Z,101775.31
2023-01-04T06:00:42.464Z,101772.19
2023-01-04T06:03:09.458Z,101765.59
2023-01-04T06:05:36.467Z,101767.84
2023-01-04T06:08:03.423Z,101758.47
2023-01-04T06:10:30.488Z,101764.59
2023-01-04T06:12:57.619Z,101776.25
2023-01-04T06:15:24.637Z,101775.34
2023-01-04T06:17:51.803Z,101774.75
2023-01-04T06:20:18.710Z,101786.81
2023-01-04T06:22:45.610Z,101785.00
2023-01-04T06:25:12.570Z,101791.88
2023-01-04T06:27:39.664Z,101790.53
2023-01-04T06:30:07.142Z,101806.72
2023-01-04T06:32:34.114Z,101803.50
2023-01-04T06:35:01.037Z,101795.34
2023-01-04T06:37:28.234Z,101798.63
2023-01-04T06:39:55.112Z,101810.06
2023-01-04T06:42:40.879Z,101818.47
2023-01-04T06:45:08.266Z,101817.25
2023-01-04T06:47:35.208Z,101814.59
2023-01-04T06:50:02.220Z,101823.41
2023-01-04T06:52:29.113Z,101825.81
2023-01-04T06:54:56.128Z,101833.13
2023-01-04T06:57:23.209Z,101832.25
2023-01-04T06:59:50.170Z,101829.22
2023-01-04T07:02:17.348Z,101836.28
2023-01-04T07:04:44.571Z,101839.84
2023-01-04T07:07:11.618Z,101841.47
2023-01-04T07:09:38.869Z,101835.56
2023-01-04T07:12:06.183Z,101833.59
2023-01-04T07:14:33.151Z,101831.41
2023-01-04T07:17:00.117Z,101833.59
2023-01-04T07:19:27.105Z,101842.47
2023-01-04T07:21:54.212Z,101854.03
2023-01-04T07:24:26.185Z,101846.06
2023-01-04T07:26:56.804Z,101850.34
2023-01-04T07:29:23.817Z,101848.69
2023-01-04T07:31:51.975Z,101863.19
2023-01-04T07:34:21.781Z,101858.84
2023-01-04T07:36:49.418Z,101857.56
2023-01-04T07:39:17.853Z,101856.56
2023-01-04T07:41:46.140Z,101868.84
2023-01-04T07:44:18.297Z,101856.94
2023-01-04T07:46:45.465Z,101870.59
2023-01-04T07:49:17.321Z,101873.16
2023-01-04T07:51:47.079Z,101872.38
2023-01-04T07:54:15.665Z,101875.38
2023-01-04T07:56:43.031Z,101871.28
2023-01-04T07:59:11.219Z,101881.88
2023-01-04T08:01:39.000Z,101879.22
2023-01-04T08:04:10.787Z,101888.97
2023-01-04T08:06:38.615Z,101890.16
2023-01-04T08:09:07.033Z,101883.56
2023-01-04T08:11:34.726Z,101883.66
2023-01-04T08:14:01.913Z,101877.50
2023-01-04T08:16:34.728Z,101877.66
2023-01-04T08:19:08.798Z,101880.13
2023-01-04T08:21:36.437Z,101872.34
2023-01-04T08:24:04.425Z,101884.75
2023-01-04T08:26:31.938Z,101876.75
2023-01-04T08:28:59.486Z,101870.59
2023-01-04T08:31:31.886Z,101876.78
2023-01-04T08:34:01.483Z,101881.13
2023-01-04T08:36:30.872Z,101889.09
2023-01-04T08:39:04.983Z,101891.75
2023-01-04T08:44:37.697Z,101897.97
2023-01-04T08:47:05.114Z,101903.19
2023-01-04T08:49:32.149Z,101905.84
2023-01-04T08:51:59.100Z,101901.47
2023-01-04T08:54:26.069Z,101908.50
2023-01-04T08:56:53.113Z,101906.59
2023-01-04T08:59:20.062Z,101905.84
2023-01-04T09:01:47.293Z,101908.56
2023-01-04T09:04:14.627Z,101902.38
2023-01-04T09:06:41.620Z,101895.28
2023-01-04T09:09:08.713Z,101889.09
2023-01-04T09:11:38.670Z,101906.50
2023-01-04T09:14:08.605Z,101903.91
2023-01-04T09:16:37.836Z,101899.59
2023-01-04T09:19:05.898Z,101893.53
2023-01-04T09:21:33.020Z,101897.91
2023-01-04T09:24:00.146Z,101891.75
2023-01-04T09:26:27.116Z,101890.00
2023-01-04T09:28:56.139Z,101891.72
2023-01-04T09:31:28.064Z,101880.28
2023-01-04T09:34:14.223Z,101876.66
2023-01-04T09:36:42.030Z,101884.47
2023-01-04T09:39:12.034Z,101881.84
2023-01-04T09:42:04.232Z,101878.53
2023-01-04T09:45:21.922Z,101892.44
2023-01-04T09:47:41.642Z,101885.59
2023-01-04T09:50:33.171Z,101879.44
2023-01-04T09:53:16.918Z,101886.44
2023-01-04T09:55:48.301Z,101896.91
2023-01-04T09:58:35.725Z,101893.19
2023-01-04T10:01:08.639Z,101894.69
2023-01-04T10:03:39.093Z,101889.03
2023-01-04T10:06:10.837Z,101888.72
2023-01-04T10:08:38.279Z,101877.75
2023-01-04T10:11:05.133Z,101884.13
2023-01-04T10:13:56.558Z,101877.19
2023-01-04T10:22:58.600Z,101874.00
2023-01-04T10:25:56.394Z,101874.13
2023-01-04T10:28:36.581Z,101870.59
2023-01-04T10:31:38.461Z,101869.72
2023-01-04T10:34:19.585Z,101878.44
2023-01-04T10:36:48.154Z,101876.69
2023-01-04T10:39:24.609Z,101876.69
2023-01-04T10:42:09.177Z,101876.31
2023-01-04T10:44:47.721Z,101882.63
2023-01-04T10:47:34.626Z,101875.75
2023-01-04T10:50:11.400Z,101878.53
2023-01-04T10:52:42.869Z,101878.56
2023-01-04T10:55:40.874Z,101874.13
2023-01-04T10:58:43.228Z,101867.06
2023-01-04T11:01:17.590Z,101874.53
2023-01-04T11:04:03.608Z,101873.63
2023-01-04T11:06:41.059Z,101879.09
2023-01-04T11:09:25.602Z,101867.88
2023-01-04T11:11:56.605Z,101878.16
2023-01-04T11:14:25.626Z,101875.59
2023-01-04T11:16:57.763Z,101875.69
2023-01-04T11:19:24.814Z,101878.22
2023-01-04T11:22:23.258Z,101876.59
2023-01-04T11:25:33.762Z,101871.34
2023-01-04T11:27:59.243Z,101877.34
2023-01-04T11:30:31.230Z,101879.09
2023-01-04T11:33:05.998Z,101869.16
2023-01-04T11:35:51.073Z,101870.88
2023-01-04T11:38:17.988Z,101876.63
2023-01-04T11:41:02.770Z,101870.41
2023-01-04T11:43:37.630Z,101872.75
2023-01-04T11:46:06.159Z,101872.78
2023-01-04T11:48:42.200Z,101870.84
2023-01-04T11:51:19.972Z,101876.53
2023-01-04T11:54:00.678Z,101871.03
2023-01-04T11:56:32.957Z,101881.59
2023-01-04T11:59:08.902Z,101868.63
2023-01-04T12:01:38.711Z,101868.56
2023-01-04T12:04:24.320Z,101876.50
2023-01-04T12:06:59.545Z,101871.22
2023-01-04T12:09:26.538Z,101878.34
2023-01-04T12:11:56.562Z,101870.41
2023-01-04T12:14:29.265Z,101866.47
2023-01-04T12:16:56.283Z,101877.31
2023-01-04T12:19:23.957Z,101865.16
2023-01-04T12:21:55.513Z,101851.13
2023-01-04T12:24:28.895Z,101860.88
2023-01-04T12:26:56.536Z,101865.06
2023-01-04T12:29:23.430Z,101867.81
2023-01-04T12:31:52.580Z,101868.66
2023-01-04T12:34:22.530Z,101868.72
2023-01-04T12:37:05.694Z,101868.63
2023-01-04T12:39:44.011Z,101873.00
2023-01-04T12:42:15.997Z,101875.66
2023-01-04T12:44:52.095Z,101871.31
2023-01-04T12:47:37.886Z,101875.72
2023-01-04T12:50:16.100Z,101867.81
2023-01-04T12:55:45.824Z,101855.50
2023-01-04T12:59:15.313Z,101859.94
2023-01-04T13:01:28.319Z,101869.69
2023-01-04T13:04:22.763Z,101871.44
2023-01-04T13:06:50.226Z,101871.34
2023-01-04T13:09:25.251Z,101881.78
2023-01-04T13:12:21.427Z,101870.94
2023-01-04T13:14:51.442Z,101875.13
2023-01-04T13:17:23.568Z,101870.72
2023-01-04T13:19:51.198Z,101861.97
2023-01-04T13:22:26.573Z,101859.97
2023-01-04T13:24:57.868Z,101870.63
2023-01-04T13:27:25.430Z,101865.19
2023-01-04T13:29:53.182Z,101868.25
2023-01-04T13:32:22.795Z,101869.63
2023-01-04T13:35:09.928Z,101868.09
2023-01-04T13:37:48.546Z,101859.19
2023-01-04T13:40:15.820Z,101868.03
2023-01-04T13:42:48.531Z,101856.75
2023-01-04T13:45:43.353Z,101853.25
2023-01-04T13:48:14.459Z,101863.53
2023-01-04T13:50:57.771Z,101875.13
2023-01-04T13:53:27.153Z,101872.66
2023-01-04T13:55:56.458Z,101874.72
2023-01-04T13:58:25.535Z,101876.00
2023-01-04T14:01:04.626Z,101869.88
2023-01-04T14:03:42.203Z,101870.59
2023-01-04T14:06:12.383Z,101880.75
2023-01-04T14:08:52.768Z,101877.75
2023-01-04T14:11:44.039Z,101874.97
2023-01-04T14:14:43.128Z,101876.28
2023-01-04T14:17:12.746Z,101881.44
2023-01-04T14:19:54.612Z,101884.72
2023-01-04T14:22:21.488Z,101885.25
2023-01-04T14:25:10.098Z,101888.94
2023-01-04T14:27:39.110Z,101884.59
2023-01-04T14:30:17.766Z,101885.16
2023-01-04T14:33:03.259Z,101883.03
2023-01-04T14:35:30.496Z,101874.34
2023-01-04T14:38:06.571Z,101885.13
2023-01-04T14:40:35.588Z,101893.25
2023-01-04T14:43:02.595Z,101897.91
2023-01-04T14:45:29.534Z,101902.69
2023-01-04T14:47:56.460Z,101903.50
2023-01-04T14:50:23.413Z,101899.03
2023-01-04T14:52:51.837Z,101897.34
2023-01-04T14:55:19.112Z,101895.25
2023-01-04T14:57:46.080Z,101893.25
2023-01-04T15:00:18.943Z,101896.91
2023-01-04T15:02:50.615Z,101896.69
2023-01-04T15:05:20.565Z,101903.09
2023-01-04T15:07:48.014Z,101900.16
2023-01-04T15:10:32.912Z,101900.41
2023-01-04T15:13:00.930Z,101899.56
2023-01-04T15:15:27.850Z,101900.59
2023-01-04T15:17:54.945Z,101907.75
2023-01-04T15:20:22.280Z,101903.19
2023-01-04T15:22:49.227Z,101914.53
2023-01-04T15:25:16.278Z,101913.19
2023-01-04T15:27:43.386Z,101916.25
2023-01-04T15:30:14.157Z,101916.41
2023-01-04T15:32:41.434Z,101920.59
2023-01-04T15:35:16.288Z,101923.28
2023-01-04T15:37:47.490Z,101914.47
2023-01-04T15:40:16.538Z,101919.91
2023-01-04T15:42:59.068Z,101907.75
2023-01-04T15:45:27.720Z,101912.06
2023-01-04T15:47:57.672Z,101924.81
2023-01-04T15:50:24.849Z,101925.22
2023-01-04T15:52:51.868Z,101924.41
2023-01-04T15:55:18.848Z,101924.22
2023-01-04T15:57:45.778Z,101924.25
2023-01-04T16:00:13.444Z,101923.53
2023-01-04T16:02:40.642Z,101928.63
2023-01-04T16:05:09.068Z,101930.25
2023-01-04T16:07:36.875Z,101932.88
2023-01-04T16:10:04.495Z,101928.78
2023-01-04T16:12:45.977Z,101927.63
2023-01-04T16:15:20.916Z,101925.03
2023-01-04T16:17:49.150Z,101931.16
2023-01-04T16:20:17.812Z,101930.25
2023-01-04T16:22:45.244Z,101932.75
2023-01-04T16:25:12.970Z,101927.25
2023-01-04T16:27:40.726Z,101940.25
2023-01-04T16:30:11.838Z,101940.56
2023-01-04T16:32:42.477Z,101944.97
2023-01-04T16:35:10.738Z,101947.69
2023-01-04T16:37:38.159Z,101936.41
2023-01-04T16:40:07.316Z,101951.34
2023-01-04T16:42:35.603Z,101942.50
2023-01-04T16:45:02.659Z,101943.13
2023-01-04T16:47:29.596Z,101939.69
2023-01-04T16:49:56.566Z,101934.91
2023-01-04T16:52:27.355Z,101933.19
2023-01-04T16:54:54.271Z,101940.16
2023-01-04T16:57:21.236Z,101936.75
2023-01-04T16:59:48.238Z,101940.31
2023-01-04T17:02:15.415Z,101948.09
2023-01-04T17:04:42.425Z,101940.13
2023-01-04T17:07:09.430Z,101941.81
2023-01-04T17:09:36.445Z,101934.34
2023-01-04T17:15:14.871Z,101927.59
2023-01-04T17:17:38.143Z,101940.94
2023-01-04T17:20:06.549Z,101949.53
2023-01-04T17:22:34.947Z,101944.16
2023-01-04T17:25:02.400Z,101938.88
2023-01-04T17:27:29.420Z,101944.22
2023-01-04T17:29:56.309Z,101942.50
2023-01-04T17:32:23.253Z,101944.94
2023-01-04T17:34:50.739Z,101941.09
2023-01-04T17:37:17.639Z,101937.81
2023-01-04T17:39:44.787Z,101937.50
2023-01-04T17:42:11.791Z,101937.41
2023-01-04T17:44:38.717Z,101945.00
2023-01-04T17:47:05.653Z,101935.03
2023-01-04T17:49:32.827Z,101938.88
2023-01-04T17:52:00.358Z,101936.94
2023-01-04T17:54:27.476Z,101929.50
2023-01-04T17:56:54.536Z,101927.03
2023-01-04T17:59:21.792Z,101930.41
2023-01-04T18:01:48.928Z,101928.75
2023-01-04T18:04:16.557Z,101929.94
2023-01-04T18:06:43.661Z,101922.63
2023-01-04T18:09:12.376Z,101919.72
2023-01-04T18:11:41.741Z,101921.88
2023-01-04T18:14:14.192Z,101923.59
2023-01-04T18:17:01.815Z,101918.88
2023-01-04T18:19:30.351Z,101922.03
2023-01-04T18:21:58.383Z,101914.31
2023-01-04T18:24:37.797Z,101914.38
2023-01-04T18:27:24.869Z,101918.91
2023-01-04T18:29:53.907Z,101918.09
2023-01-04T18:32:22.179Z,101912.47
2023-01-04T18:34:49.205Z,101908.66
2023-01-04T18:37:18.745Z,101911.47
2023-01-04T18:39:46.767Z,101905.47
2023-01-04T18:42:13.879Z,101907.47
2023-01-04T18:44:47.453Z,101898.72
2023-01-04T18:47:15.979Z,101905.63
2023-01-04T18:49:43.111Z,101908.25
2023-01-04T18:52:10.056Z,101908.25
2023-01-04T18:54:37.171Z,101898.59
2023-01-04T18:57:05.249Z,101903.69
2023-01-04T18:59:32.762Z,101905.31
2023-01-04T19:02:03.562Z,101912.19
2023-01-04T19:04:32.568Z,101904.81
2023-01-04T19:06:59.974Z,101905.00
2023-01-04T19:09:27.003Z,101901.56
2023-01-04T19:11:53.937Z,101899.84
2023-01-04T19:14:20.961Z,101896.84
2023-01-04T19:16:47.925Z,101899.19
2023-01-04T19:19:14.879Z,101897.72
2023-01-04T19:21:41.929Z,101891.94
2023-01-04T19:24:09.184Z,101888.47
2023-01-04T19:26:36.546Z,101890.47
2023-01-04T19:29:04.460Z,101891.50
2023-01-04T19:31:31.415Z,101895.84
2023-01-04T19:33:58.510Z,101887.19
2023-01-04T19:36:25.561Z,101890.69
2023-01-04T19:38:54.742Z,101881.19
2023-01-04T19:41:29.321Z,101890.81
2023-01-04T19:44:05.278Z,101881.56
2023-01-04T19:46:32.496Z,101875.78
2023-01-04T19:48:59.926Z,101869.78
2023-01-04T19:51:30.045Z,101868.91
2023-01-04T19:53:58.150Z,101875.06
2023-01-04T19:56:25.395Z,101871.91
2023-01-04T19:58:52.576Z,101880.97
2023-01-04T20:01:22.450Z,101874.84
2023-01-04T20:03:51.467Z,101875.59
2023-01-04T20:06:18.487Z,101873.84
2023-01-04T20:08:45.508Z,101875.47
2023-01-04T20:11:13.048Z,101867.59
2023-01-04T20:13:40.865Z,101864.22
2023-01-04T20:16:08.402Z,101864.97
2023-01-04T20:18:36.550Z,101862.91
2023-01-04T20:21:09.665Z,101864.69
2023-01-04T20:23:37.903Z,101863.09
2023-01-04T20:26:11.227Z,101860.69
2023-01-04T20:28:38.962Z,101865.16
2023-01-04T20:31:08.636Z,101861.53
2023-01-04T20:33:35.796Z,101869.25
2023-01-04T20:36:12.928Z,101867.31
2023-01-04T20:38:41.634Z,101862.09
2023-01-04T20:41:11.749Z,101860.19
2023-01-04T20:43:38.772Z,101847.09
2023-01-04T20:46:11.347Z,101854.75
2023-01-04T20:48:38.693Z,101848.72
2023-01-04T20:51:07.884Z,101840.56
2023-01-04T20:53:36.298Z,101848.28
2023-01-04T20:56:07.994Z,101848.38
2023-01-04T20:58:35.831Z,101857.94
2023-01-04T21:01:05.006Z,101857.44
2023-01-04T21:03:32.372Z,101847.91
2023-01-04T21:06:05.318Z,101846.13
2023-01-04T21:08:32.524Z,101847.97
2023-01-04T21:10:59.552Z,101850.69
2023-01-04T21:13:27.748Z,101848.00
2023-01-04T21:15:56.256Z,101841.06
2023-01-04T21:18:24.811Z,101835.97
2023-01-04T21:20:52.305Z,101841.72
2023-01-04T21:23:23.914Z,101837.38
2023-01-04T21:25:51.608Z,101841.06
2023-01-04T21:28:20.974Z,101837.72
2023-01-04T21:30:48.919Z,101830.34
2023-01-04T21:33:17.009Z,101827.69
2023-01-04T21:35:43.993Z,101829.59
2023-01-04T21:38:11.571Z,101813.19
2023-01-04T21:40:40.725Z,101818.06
2023-01-04T21:43:14.492Z,101810.31
2023-01-04T21:45:41.455Z,101804.19
2023-01-04T21:48:08.476Z,101807.63
2023-01-04T21:50:37.126Z,101797.97
2023-01-04T21:53:04.114Z,101795.34
2023-01-04T21:55:34.621Z,101789.88
2023-01-04T21:58:03.236Z,101787.81
2023-01-04T22:00:30.084Z,101781.19
2023-01-04T22:02:56.997Z,101782.53
2023-01-04T22:05:23.890Z,101771.44
2023-01-04T22:07:50.792Z,101772.38
2023-01-04T22:10:17.731Z,101775.38
2023-01-04T22:12:45.125Z,101771.56
2023-01-04T22:15:12.101Z,101771.78
2023-01-04T22:17:39.099Z,101762.66
2023-01-04T22:20:06.630Z,101762.47
2023-01-04T22:22:33.580Z,101766.84
2023-01-04T22:25:00.561Z,101751.13
2023-01-04T22:27:27.419Z,101749.78
2023-01-04T22:29:56.340Z,101751.25
2023-01-04T22:32:23.196Z,101742.38
2023-01-04T22:34:50.359Z,101736.94
2023-01-04T22:37:17.308Z,101738.88
2023-01-04T22:39:44.226Z,101730.66
2023-01-04T22:42:11.253Z,101729.13
2023-01-04T22:44:38.195Z,101724.81
2023-01-04T22:47:05.339Z,101723.97
2023-01-04T22:49:32.363Z,101724.56
2023-01-04T22:51:59.482Z,101718.38
2023-01-04T22:54:26.329Z,101719.19
2023-01-04T22:56:53.204Z,101713.63
2023-01-04T22:59:20.155Z,101712.38
2023-01-04T23:01:47.341Z,101708.97
2023-01-04T23:04:16.757Z,101705.66
2023-01-04T23:06:44.121Z,101698.06
2023-01-04T23:09:14.581Z,101700.16
2023-01-04T23:11:42.212Z,101691.41
2023-01-04T23:14:13.045Z,101694.13
2023-01-04T23:16:40.378Z,101693.16
2023-01-04T23:19:07.335Z,101692.84
2023-01-04T23:21:35.666Z,101687.31
2023-01-04T23:24:03.357Z,101680.47
2023-01-04T23:26:31.707Z,101679.59
2023-01-04T23:28:59.615Z,101671.75
2023-01-04T23:31:29.239Z,101664.81
2023-01-04T23:33:58.986Z,101663.34
2023-01-04T23:36:30.548Z,101659.81
2023-01-04T23:39:00.199Z,101652.88
2023-01-04T23:41:46.315Z,101651.75
2023-01-04T23:44:18.050Z,101659.53
2023-01-04T23:46:46.167Z,101662.19
2023-01-04T23:49:13.608Z,101665.72
2023-01-04T23:51:42.593Z,101660.22
2023-01-04T23:54:09.889Z,101662.94
2023-01-04T23:56:37.957Z,101662.94
2023-01-04T23:59:05.534Z,101662.47
